sensor_id;sensor_type;location;lat;lon;timestamp;P1;durP1;ratioP1;P2;durP2;ratioP2
32521;SDS011;18963;51.504;5.316;2023-05-07T00:02:20;9.75;;;6.30;;
32521;SDS011;18963;51.504;5.316;2023-05-07T00:04:47;9.20;;;6.40;;
32521;SDS011;18963;51.504;5.316;2023-05-07T00:07:13;12.23;;;6.72;;
32521;SDS011;18963;51.504;5.316;2023-05-07T00:09:39;10.00;;;6.57;;
32521;SDS011;18963;51.504;5.316;2023-05-07T00:12:05;9.15;;;6.18;;
32521;SDS011;18963;51.504;5.316;2023-05-07T00:14:31;9.32;;;5.70;;
32521;SDS011;18963;51.504;5.316;2023-05-07T00:16:56;8.40;;;5.78;;
32521;SDS011;18963;51.504;5.316;2023-05-07T00:19:22;11.52;;;6.55;;
32521;SDS011;18963;51.504;5.316;2023-05-07T00:21:47;10.13;;;6.00;;
32521;SDS011;18963;51.504;5.316;2023-05-07T00:24:13;9.40;;;6.00;;
32521;SDS011;18963;51.504;5.316;2023-05-07T00:26:39;11.90;;;6.63;;
32521;SDS011;18963;51.504;5.316;2023-05-07T00:29:04;10.43;;;6.22;;
32521;SDS011;18963;51.504;5.316;2023-05-07T00:31:30;9.80;;;6.32;;
32521;SDS011;18963;51.504;5.316;2023-05-07T00:33:55;9.98;;;6.18;;
32521;SDS011;18963;51.504;5.316;2023-05-07T00:36:21;10.88;;;6.45;;
32521;SDS011;18963;51.504;5.316;2023-05-07T00:38:46;10.40;;;6.65;;
32521;SDS011;18963;51.504;5.316;2023-05-07T00:41:12;11.38;;;6.78;;
32521;SDS011;18963;51.504;5.316;2023-05-07T00:43:38;9.35;;;5.97;;
32521;SDS011;18963;51.504;5.316;2023-05-07T00:46:03;10.13;;;6.15;;
32521;SDS011;18963;51.504;5.316;2023-05-07T00:48:29;10.93;;;6.32;;
32521;SDS011;18963;51.504;5.316;2023-05-07T00:50:55;11.05;;;6.22;;
32521;SDS011;18963;51.504;5.316;2023-05-07T00:53:21;11.43;;;7.07;;
32521;SDS011;18963;51.504;5.316;2023-05-07T00:55:47;11.13;;;6.55;;
32521;SDS011;18963;51.504;5.316;2023-05-07T00:58:13;10.70;;;6.13;;
32521;SDS011;18963;51.504;5.316;2023-05-07T01:00:39;10.25;;;6.60;;
32521;SDS011;18963;51.504;5.316;2023-05-07T01:03:05;9.32;;;6.00;;
32521;SDS011;18963;51.504;5.316;2023-05-07T01:05:31;8.00;;;5.38;;
32521;SDS011;18963;51.504;5.316;2023-05-07T01:07:57;10.38;;;6.40;;
32521;SDS011;18963;51.504;5.316;2023-05-07T01:10:24;8.85;;;5.55;;
32521;SDS011;18963;51.504;5.316;2023-05-07T01:12:50;10.43;;;6.32;;
32521;SDS011;18963;51.504;5.316;2023-05-07T01:15:17;10.00;;;6.68;;
32521;SDS011;18963;51.504;5.316;2023-05-07T01:17:43;9.98;;;6.50;;
32521;SDS011;18963;51.504;5.316;2023-05-07T01:20:10;10.35;;;6.20;;
32521;SDS011;18963;51.504;5.316;2023-05-07T01:22:39;11.95;;;6.90;;
32521;SDS011;18963;51.504;5.316;2023-05-07T01:25:05;11.95;;;6.78;;
32521;SDS011;18963;51.504;5.316;2023-05-07T01:27:33;11.40;;;7.30;;
32521;SDS011;18963;51.504;5.316;2023-05-07T01:30:00;10.40;;;7.13;;
32521;SDS011;18963;51.504;5.316;2023-05-07T01:32:31;12.57;;;7.75;;
32521;SDS011;18963;51.504;5.316;2023-05-07T01:35:01;11.80;;;7.70;;
32521;SDS011;18963;51.504;5.316;2023-05-07T01:37:30;12.05;;;7.70;;
32521;SDS011;18963;51.504;5.316;2023-05-07T01:39:55;12.93;;;6.82;;
32521;SDS011;18963;51.504;5.316;2023-05-07T01:42:22;10.15;;;7.13;;
32521;SDS011;18963;51.504;5.316;2023-05-07T01:44:48;12.48;;;7.53;;
32521;SDS011;18963;51.504;5.316;2023-05-07T01:47:13;10.20;;;6.95;;
32521;SDS011;18963;51.504;5.316;2023-05-07T01:49:39;12.27;;;7.38;;
32521;SDS011;18963;51.504;5.316;2023-05-07T01:52:06;14.02;;;8.13;;
32521;SDS011;18963;51.504;5.316;2023-05-07T01:54:31;12.13;;;7.50;;
32521;SDS011;18963;51.504;5.316;2023-05-07T01:56:57;10.60;;;6.60;;
32521;SDS011;18963;51.504;5.316;2023-05-07T01:59:23;12.35;;;7.32;;
32521;SDS011;18963;51.504;5.316;2023-05-07T02:01:48;14.30;;;7.15;;
32521;SDS011;18963;51.504;5.316;2023-05-07T02:04:14;11.18;;;7.65;;
32521;SDS011;18963;51.504;5.316;2023-05-07T02:06:39;12.32;;;7.10;;
32521;SDS011;18963;51.504;5.316;2023-05-07T02:09:05;13.50;;;7.50;;
32521;SDS011;18963;51.504;5.316;2023-05-07T02:11:31;14.65;;;7.90;;
32521;SDS011;18963;51.504;5.316;2023-05-07T02:13:56;12.57;;;7.32;;
32521;SDS011;18963;51.504;5.316;2023-05-07T02:16:22;13.93;;;8.15;;
32521;SDS011;18963;51.504;5.316;2023-05-07T02:18:48;12.15;;;8.00;;
32521;SDS011;18963;51.504;5.316;2023-05-07T02:21:14;13.75;;;8.50;;
32521;SDS011;18963;51.504;5.316;2023-05-07T02:23:40;17.08;;;8.63;;
32521;SDS011;18963;51.504;5.316;2023-05-07T02:26:05;16.00;;;8.55;;
32521;SDS011;18963;51.504;5.316;2023-05-07T02:28:31;14.23;;;8.98;;
32521;SDS011;18963;51.504;5.316;2023-05-07T02:30:56;14.38;;;8.95;;
32521;SDS011;18963;51.504;5.316;2023-05-07T02:33:23;14.60;;;9.10;;
32521;SDS011;18963;51.504;5.316;2023-05-07T02:35:49;13.40;;;8.95;;
32521;SDS011;18963;51.504;5.316;2023-05-07T02:38:16;13.23;;;8.02;;
32521;SDS011;18963;51.504;5.316;2023-05-07T02:40:42;15.60;;;9.10;;
32521;SDS011;18963;51.504;5.316;2023-05-07T02:43:09;17.98;;;8.45;;
32521;SDS011;18963;51.504;5.316;2023-05-07T02:45:34;16.73;;;9.68;;
32521;SDS011;18963;51.504;5.316;2023-05-07T02:48:02;14.20;;;8.98;;
32521;SDS011;18963;51.504;5.316;2023-05-07T02:50:28;14.55;;;8.85;;
32521;SDS011;18963;51.504;5.316;2023-05-07T02:52:54;13.10;;;8.65;;
32521;SDS011;18963;51.504;5.316;2023-05-07T02:55:20;15.40;;;8.98;;
32521;SDS011;18963;51.504;5.316;2023-05-07T02:57:46;14.38;;;10.18;;
32521;SDS011;18963;51.504;5.316;2023-05-07T03:00:12;15.77;;;9.93;;
32521;SDS011;18963;51.504;5.316;2023-05-07T03:02:39;17.08;;;10.18;;
32521;SDS011;18963;51.504;5.316;2023-05-07T03:05:05;18.02;;;11.05;;
32521;SDS011;18963;51.504;5.316;2023-05-07T03:07:31;18.20;;;11.20;;
32521;SDS011;18963;51.504;5.316;2023-05-07T03:09:57;18.63;;;11.43;;
32521;SDS011;18963;51.504;5.316;2023-05-07T03:12:23;17.67;;;10.43;;
32521;SDS011;18963;51.504;5.316;2023-05-07T03:14:48;17.33;;;11.23;;
32521;SDS011;18963;51.504;5.316;2023-05-07T03:17:14;16.88;;;10.75;;
32521;SDS011;18963;51.504;5.316;2023-05-07T03:19:41;17.77;;;9.93;;
32521;SDS011;18963;51.504;5.316;2023-05-07T03:22:06;18.58;;;10.77;;
32521;SDS011;18963;51.504;5.316;2023-05-07T03:24:32;18.15;;;11.48;;
32521;SDS011;18963;51.504;5.316;2023-05-07T03:26:58;17.00;;;10.55;;
32521;SDS011;18963;51.504;5.316;2023-05-07T03:29:23;17.25;;;10.93;;
32521;SDS011;18963;51.504;5.316;2023-05-07T03:31:49;17.10;;;10.50;;
32521;SDS011;18963;51.504;5.316;2023-05-07T03:34:15;20.05;;;11.70;;
32521;SDS011;18963;51.504;5.316;2023-05-07T03:36:42;17.58;;;11.02;;
32521;SDS011;18963;51.504;5.316;2023-05-07T03:39:07;19.02;;;11.50;;
32521;SDS011;18963;51.504;5.316;2023-05-07T03:41:33;20.38;;;11.98;;
32521;SDS011;18963;51.504;5.316;2023-05-07T03:43:58;19.25;;;12.40;;
32521;SDS011;18963;51.504;5.316;2023-05-07T03:46:24;22.42;;;12.93;;
32521;SDS011;18963;51.504;5.316;2023-05-07T03:48:51;19.77;;;13.05;;
32521;SDS011;18963;51.504;5.316;2023-05-07T03:51:17;17.15;;;11.57;;
32521;SDS011;18963;51.504;5.316;2023-05-07T03:53:42;20.42;;;13.73;;
32521;SDS011;18963;51.504;5.316;2023-05-07T03:56:08;20.50;;;12.10;;
32521;SDS011;18963;51.504;5.316;2023-05-07T03:58:33;22.42;;;12.30;;
32521;SDS011;18963;51.504;5.316;2023-05-07T04:00:59;21.48;;;12.32;;
32521;SDS011;18963;51.504;5.316;2023-05-07T04:03:25;22.20;;;13.20;;
32521;SDS011;18963;51.504;5.316;2023-05-07T04:05:51;19.20;;;11.77;;
32521;SDS011;18963;51.504;5.316;2023-05-07T04:08:16;18.77;;;11.40;;
32521;SDS011;18963;51.504;5.316;2023-05-07T04:10:42;17.02;;;10.95;;
32521;SDS011;18963;51.504;5.316;2023-05-07T04:13:07;18.17;;;11.35;;
32521;SDS011;18963;51.504;5.316;2023-05-07T04:15:33;16.40;;;10.77;;
32521;SDS011;18963;51.504;5.316;2023-05-07T04:17:58;18.40;;;11.43;;
32521;SDS011;18963;51.504;5.316;2023-05-07T04:20:24;19.88;;;11.77;;
32521;SDS011;18963;51.504;5.316;2023-05-07T04:22:49;18.52;;;12.18;;
32521;SDS011;18963;51.504;5.316;2023-05-07T04:25:15;17.83;;;11.02;;
32521;SDS011;18963;51.504;5.316;2023-05-07T04:27:41;16.02;;;10.68;;
32521;SDS011;18963;51.504;5.316;2023-05-07T04:30:07;20.13;;;11.57;;
32521;SDS011;18963;51.504;5.316;2023-05-07T04:32:33;18.38;;;11.25;;
32521;SDS011;18963;51.504;5.316;2023-05-07T04:34:58;19.33;;;11.85;;
32521;SDS011;18963;51.504;5.316;2023-05-07T04:37:25;22.95;;;12.70;;
32521;SDS011;18963;51.504;5.316;2023-05-07T04:39:51;22.77;;;13.10;;
32521;SDS011;18963;51.504;5.316;2023-05-07T04:42:17;20.55;;;11.60;;
32521;SDS011;18963;51.504;5.316;2023-05-07T04:44:43;19.55;;;12.18;;
32521;SDS011;18963;51.504;5.316;2023-05-07T04:47:10;15.85;;;10.15;;
32521;SDS011;18963;51.504;5.316;2023-05-07T04:49:36;18.13;;;10.35;;
32521;SDS011;18963;51.504;5.316;2023-05-07T04:52:02;24.50;;;12.60;;
32521;SDS011;18963;51.504;5.316;2023-05-07T04:54:28;21.58;;;13.07;;
32521;SDS011;18963;51.504;5.316;2023-05-07T04:56:54;22.45;;;14.10;;
32521;SDS011;18963;51.504;5.316;2023-05-07T04:59:20;20.15;;;12.40;;
32521;SDS011;18963;51.504;5.316;2023-05-07T05:01:46;22.42;;;13.45;;
32521;SDS011;18963;51.504;5.316;2023-05-07T05:04:11;24.45;;;14.27;;
32521;SDS011;18963;51.504;5.316;2023-05-07T05:06:38;24.02;;;13.95;;
32521;SDS011;18963;51.504;5.316;2023-05-07T05:09:03;25.48;;;15.38;;
32521;SDS011;18963;51.504;5.316;2023-05-07T05:11:30;22.77;;;14.13;;
32521;SDS011;18963;51.504;5.316;2023-05-07T05:13:55;26.30;;;15.38;;
32521;SDS011;18963;51.504;5.316;2023-05-07T05:16:21;25.40;;;15.77;;
32521;SDS011;18963;51.504;5.316;2023-05-07T05:18:47;23.70;;;14.15;;
32521;SDS011;18963;51.504;5.316;2023-05-07T05:21:13;24.35;;;15.45;;
32521;SDS011;18963;51.504;5.316;2023-05-07T05:23:38;26.58;;;15.50;;
32521;SDS011;18963;51.504;5.316;2023-05-07T05:26:04;23.55;;;15.07;;
32521;SDS011;18963;51.504;5.316;2023-05-07T05:28:29;26.58;;;15.48;;
32521;SDS011;18963;51.504;5.316;2023-05-07T05:30:55;25.83;;;16.10;;
32521;SDS011;18963;51.504;5.316;2023-05-07T05:33:21;28.27;;;16.45;;
32521;SDS011;18963;51.504;5.316;2023-05-07T05:35:46;25.33;;;14.85;;
32521;SDS011;18963;51.504;5.316;2023-05-07T05:38:12;24.60;;;15.25;;
32521;SDS011;18963;51.504;5.316;2023-05-07T05:40:38;24.40;;;15.73;;
32521;SDS011;18963;51.504;5.316;2023-05-07T05:43:03;26.42;;;16.35;;
32521;SDS011;18963;51.504;5.316;2023-05-07T05:45:29;25.48;;;15.45;;
32521;SDS011;18963;51.504;5.316;2023-05-07T05:47:55;21.92;;;14.80;;
32521;SDS011;18963;51.504;5.316;2023-05-07T05:50:21;29.95;;;17.23;;
32521;SDS011;18963;51.504;5.316;2023-05-07T05:52:47;24.20;;;15.38;;
32521;SDS011;18963;51.504;5.316;2023-05-07T05:55:13;20.08;;;13.95;;
32521;SDS011;18963;51.504;5.316;2023-05-07T05:57:38;26.98;;;16.98;;
32521;SDS011;18963;51.504;5.316;2023-05-07T06:00:05;28.35;;;17.13;;
32521;SDS011;18963;51.504;5.316;2023-05-07T06:02:31;23.40;;;14.25;;
32521;SDS011;18963;51.504;5.316;2023-05-07T06:04:57;26.02;;;16.23;;
32521;SDS011;18963;51.504;5.316;2023-05-07T06:07:22;24.65;;;16.20;;
32521;SDS011;18963;51.504;5.316;2023-05-07T06:09:48;24.95;;;16.17;;
32521;SDS011;18963;51.504;5.316;2023-05-07T06:12:14;25.83;;;15.98;;
32521;SDS011;18963;51.504;5.316;2023-05-07T06:14:39;26.92;;;16.48;;
32521;SDS011;18963;51.504;5.316;2023-05-07T06:17:07;26.05;;;16.52;;
32521;SDS011;18963;51.504;5.316;2023-05-07T06:19:33;23.05;;;14.90;;
32521;SDS011;18963;51.504;5.316;2023-05-07T06:21:58;24.10;;;16.23;;
32521;SDS011;18963;51.504;5.316;2023-05-07T06:24:26;23.38;;;15.48;;
32521;SDS011;18963;51.504;5.316;2023-05-07T06:26:51;23.50;;;15.73;;
32521;SDS011;18963;51.504;5.316;2023-05-07T06:29:17;25.13;;;14.75;;
32521;SDS011;18963;51.504;5.316;2023-05-07T06:31:43;23.92;;;15.35;;
32521;SDS011;18963;51.504;5.316;2023-05-07T06:34:09;23.35;;;15.05;;
32521;SDS011;18963;51.504;5.316;2023-05-07T06:36:35;23.95;;;14.70;;
32521;SDS011;18963;51.504;5.316;2023-05-07T06:39:01;22.10;;;13.88;;
32521;SDS011;18963;51.504;5.316;2023-05-07T06:41:26;20.42;;;14.00;;
32521;SDS011;18963;51.504;5.316;2023-05-07T06:43:52;21.25;;;14.07;;
32521;SDS011;18963;51.504;5.316;2023-05-07T06:46:17;21.65;;;14.68;;
32521;SDS011;18963;51.504;5.316;2023-05-07T06:48:43;20.90;;;13.35;;
32521;SDS011;18963;51.504;5.316;2023-05-07T06:51:08;20.42;;;12.98;;
32521;SDS011;18963;51.504;5.316;2023-05-07T06:53:34;18.20;;;12.00;;
32521;SDS011;18963;51.504;5.316;2023-05-07T06:56:00;20.77;;;13.50;;
32521;SDS011;18963;51.504;5.316;2023-05-07T06:58:26;21.92;;;13.77;;
32521;SDS011;18963;51.504;5.316;2023-05-07T07:00:51;20.67;;;12.30;;
32521;SDS011;18963;51.504;5.316;2023-05-07T07:03:17;20.25;;;13.30;;
32521;SDS011;18963;51.504;5.316;2023-05-07T07:05:42;20.08;;;12.98;;
32521;SDS011;18963;51.504;5.316;2023-05-07T07:08:09;20.73;;;12.95;;
32521;SDS011;18963;51.504;5.316;2023-05-07T07:10:35;21.30;;;12.98;;
32521;SDS011;18963;51.504;5.316;2023-05-07T07:13:00;17.90;;;12.75;;
32521;SDS011;18963;51.504;5.316;2023-05-07T07:15:26;18.48;;;13.52;;
32521;SDS011;18963;51.504;5.316;2023-05-07T07:17:51;20.75;;;12.90;;
32521;SDS011;18963;51.504;5.316;2023-05-07T07:20:17;18.35;;;13.07;;
32521;SDS011;18963;51.504;5.316;2023-05-07T07:22:43;19.92;;;13.55;;
32521;SDS011;18963;51.504;5.316;2023-05-07T07:25:08;17.73;;;12.32;;
32521;SDS011;18963;51.504;5.316;2023-05-07T07:27:36;19.08;;;12.75;;
32521;SDS011;18963;51.504;5.316;2023-05-07T07:30:01;19.50;;;13.77;;
32521;SDS011;18963;51.504;5.316;2023-05-07T07:32:27;23.13;;;14.35;;
32521;SDS011;18963;51.504;5.316;2023-05-07T07:34:53;18.48;;;13.30;;
32521;SDS011;18963;51.504;5.316;2023-05-07T07:37:18;16.83;;;12.18;;
32521;SDS011;18963;51.504;5.316;2023-05-07T07:39:44;22.90;;;12.15;;
32521;SDS011;18963;51.504;5.316;2023-05-07T07:42:10;17.35;;;10.85;;
32521;SDS011;18963;51.504;5.316;2023-05-07T07:44:35;18.17;;;12.32;;
32521;SDS011;18963;51.504;5.316;2023-05-07T07:47:01;18.27;;;11.05;;
32521;SDS011;18963;51.504;5.316;2023-05-07T07:49:26;16.33;;;11.15;;
32521;SDS011;18963;51.504;5.316;2023-05-07T07:51:52;17.33;;;11.52;;
32521;SDS011;18963;51.504;5.316;2023-05-07T07:54:18;20.13;;;12.38;;
32521;SDS011;18963;51.504;5.316;2023-05-07T07:56:43;15.93;;;10.95;;
32521;SDS011;18963;51.504;5.316;2023-05-07T07:59:09;15.20;;;10.32;;
32521;SDS011;18963;51.504;5.316;2023-05-07T08:01:34;17.88;;;10.25;;
32521;SDS011;18963;51.504;5.316;2023-05-07T08:04:00;18.45;;;11.13;;
32521;SDS011;18963;51.504;5.316;2023-05-07T08:06:28;16.05;;;11.05;;
32521;SDS011;18963;51.504;5.316;2023-05-07T08:08:53;16.23;;;10.30;;
32521;SDS011;18963;51.504;5.316;2023-05-07T08:11:20;14.23;;;9.57;;
32521;SDS011;18963;51.504;5.316;2023-05-07T08:13:46;13.95;;;9.55;;
32521;SDS011;18963;51.504;5.316;2023-05-07T08:16:12;16.13;;;9.85;;
32521;SDS011;18963;51.504;5.316;2023-05-07T08:18:38;14.35;;;10.25;;
32521;SDS011;18963;51.504;5.316;2023-05-07T08:21:03;14.20;;;10.00;;
32521;SDS011;18963;51.504;5.316;2023-05-07T08:23:29;15.82;;;11.10;;
32521;SDS011;18963;51.504;5.316;2023-05-07T08:25:55;15.95;;;9.93;;
32521;SDS011;18963;51.504;5.316;2023-05-07T08:28:21;16.35;;;11.20;;
32521;SDS011;18963;51.504;5.316;2023-05-07T08:30:46;16.77;;;10.63;;
32521;SDS011;18963;51.504;5.316;2023-05-07T08:33:12;16.25;;;10.60;;
32521;SDS011;18963;51.504;5.316;2023-05-07T08:35:38;13.27;;;10.55;;
32521;SDS011;18963;51.504;5.316;2023-05-07T08:38:03;16.02;;;11.23;;
32521;SDS011;18963;51.504;5.316;2023-05-07T08:40:29;16.98;;;10.23;;
32521;SDS011;18963;51.504;5.316;2023-05-07T08:43:01;14.90;;;10.80;;
32521;SDS011;18963;51.504;5.316;2023-05-07T08:45:27;15.60;;;10.52;;
32521;SDS011;18963;51.504;5.316;2023-05-07T08:48:02;16.58;;;10.57;;
32521;SDS011;18963;51.504;5.316;2023-05-07T08:50:30;15.50;;;10.02;;
32521;SDS011;18963;51.504;5.316;2023-05-07T08:52:56;15.80;;;11.07;;
32521;SDS011;18963;51.504;5.316;2023-05-07T08:55:22;14.30;;;9.35;;
32521;SDS011;18963;51.504;5.316;2023-05-07T08:57:48;13.85;;;9.63;;
32521;SDS011;18963;51.504;5.316;2023-05-07T09:00:15;16.00;;;10.85;;
32521;SDS011;18963;51.504;5.316;2023-05-07T09:02:40;16.30;;;10.55;;
32521;SDS011;18963;51.504;5.316;2023-05-07T09:05:06;14.70;;;10.02;;
32521;SDS011;18963;51.504;5.316;2023-05-07T09:07:32;14.73;;;10.23;;
32521;SDS011;18963;51.504;5.316;2023-05-07T09:10:00;16.27;;;11.35;;
32521;SDS011;18963;51.504;5.316;2023-05-07T09:12:27;14.25;;;10.70;;
32521;SDS011;18963;51.504;5.316;2023-05-07T09:14:52;12.75;;;9.57;;
32521;SDS011;18963;51.504;5.316;2023-05-07T09:17:18;14.88;;;10.18;;
32521;SDS011;18963;51.504;5.316;2023-05-07T09:19:44;13.90;;;9.52;;
32521;SDS011;18963;51.504;5.316;2023-05-07T09:22:10;14.05;;;9.88;;
32521;SDS011;18963;51.504;5.316;2023-05-07T09:24:36;16.77;;;11.50;;
32521;SDS011;18963;51.504;5.316;2023-05-07T09:27:06;14.63;;;10.68;;
32521;SDS011;18963;51.504;5.316;2023-05-07T09:29:33;16.05;;;10.77;;
32521;SDS011;18963;51.504;5.316;2023-05-07T09:32:02;14.15;;;10.27;;
32521;SDS011;18963;51.504;5.316;2023-05-07T09:34:30;15.73;;;10.20;;
32521;SDS011;18963;51.504;5.316;2023-05-07T09:36:56;15.13;;;9.73;;
32521;SDS011;18963;51.504;5.316;2023-05-07T09:39:26;14.77;;;9.88;;
32521;SDS011;18963;51.504;5.316;2023-05-07T09:42:03;14.25;;;9.00;;
32521;SDS011;18963;51.504;5.316;2023-05-07T09:44:29;13.68;;;9.80;;
32521;SDS011;18963;51.504;5.316;2023-05-07T09:46:57;15.70;;;10.70;;
32521;SDS011;18963;51.504;5.316;2023-05-07T09:49:25;14.57;;;10.27;;
32521;SDS011;18963;51.504;5.316;2023-05-07T09:51:57;13.93;;;9.98;;
32521;SDS011;18963;51.504;5.316;2023-05-07T09:54:24;16.08;;;11.43;;
32521;SDS011;18963;51.504;5.316;2023-05-07T09:56:51;17.17;;;11.73;;
32521;SDS011;18963;51.504;5.316;2023-05-07T09:59:17;13.82;;;9.70;;
32521;SDS011;18963;51.504;5.316;2023-05-07T10:01:45;16.55;;;11.68;;
32521;SDS011;18963;51.504;5.316;2023-05-07T10:04:11;18.13;;;12.32;;
32521;SDS011;18963;51.504;5.316;2023-05-07T10:06:37;16.05;;;11.95;;
32521;SDS011;18963;51.504;5.316;2023-05-07T10:09:03;16.20;;;11.02;;
32521;SDS011;18963;51.504;5.316;2023-05-07T10:11:33;16.13;;;10.82;;
32521;SDS011;18963;51.504;5.316;2023-05-07T10:13:59;17.50;;;12.30;;
32521;SDS011;18963;51.504;5.316;2023-05-07T10:16:27;16.92;;;11.80;;
32521;SDS011;18963;51.504;5.316;2023-05-07T10:19:05;15.67;;;11.70;;
32521;SDS011;18963;51.504;5.316;2023-05-07T10:21:39;16.52;;;11.10;;
32521;SDS011;18963;51.504;5.316;2023-05-07T10:24:21;15.25;;;9.82;;
32521;SDS011;18963;51.504;5.316;2023-05-07T10:26:51;15.15;;;10.65;;
32521;SDS011;18963;51.504;5.316;2023-05-07T10:29:21;15.65;;;11.30;;
32521;SDS011;18963;51.504;5.316;2023-05-07T10:34:43;14.63;;;10.60;;
32521;SDS011;18963;51.504;5.316;2023-05-07T10:37:12;14.32;;;10.52;;
32521;SDS011;18963;51.504;5.316;2023-05-07T10:39:38;16.42;;;9.77;;
32521;SDS011;18963;51.504;5.316;2023-05-07T10:42:13;14.30;;;10.02;;
32521;SDS011;18963;51.504;5.316;2023-05-07T10:44:39;14.30;;;9.88;;
32521;SDS011;18963;51.504;5.316;2023-05-07T10:47:06;15.77;;;10.40;;
32521;SDS011;18963;51.504;5.316;2023-05-07T10:49:36;13.57;;;10.07;;
32521;SDS011;18963;51.504;5.316;2023-05-07T10:52:17;14.67;;;10.30;;
32521;SDS011;18963;51.504;5.316;2023-05-07T10:54:44;14.68;;;10.48;;
32521;SDS011;18963;51.504;5.316;2023-05-07T11:00:00;15.70;;;10.75;;
32521;SDS011;18963;51.504;5.316;2023-05-07T11:07:55;12.52;;;7.95;;
32521;SDS011;18963;51.504;5.316;2023-05-07T11:10:22;13.07;;;9.82;;
32521;SDS011;18963;51.504;5.316;2023-05-07T11:12:51;12.35;;;9.30;;
32521;SDS011;18963;51.504;5.316;2023-05-07T11:15:34;10.88;;;7.68;;
32521;SDS011;18963;51.504;5.316;2023-05-07T11:18:04;13.77;;;8.63;;
32521;SDS011;18963;51.504;5.316;2023-05-07T11:26:09;12.65;;;8.63;;
32521;SDS011;18963;51.504;5.316;2023-05-07T11:28:41;13.57;;;9.23;;
32521;SDS011;18963;51.504;5.316;2023-05-07T11:31:08;14.90;;;8.57;;
32521;SDS011;18963;51.504;5.316;2023-05-07T11:33:35;12.02;;;8.23;;
32521;SDS011;18963;51.504;5.316;2023-05-07T11:36:03;12.63;;;8.68;;
32521;SDS011;18963;51.504;5.316;2023-05-07T11:38:29;11.65;;;7.90;;
32521;SDS011;18963;51.504;5.316;2023-05-07T11:40:59;11.25;;;7.72;;
32521;SDS011;18963;51.504;5.316;2023-05-07T11:43:29;13.57;;;7.90;;
32521;SDS011;18963;51.504;5.316;2023-05-07T11:46:04;11.15;;;8.20;;
32521;SDS011;18963;51.504;5.316;2023-05-07T11:48:34;12.80;;;8.68;;
32521;SDS011;18963;51.504;5.316;2023-05-07T11:51:01;11.73;;;8.73;;
32521;SDS011;18963;51.504;5.316;2023-05-07T11:53:35;12.80;;;8.20;;
32521;SDS011;18963;51.504;5.316;2023-05-07T11:56:08;13.13;;;8.18;;
32521;SDS011;18963;51.504;5.316;2023-05-07T11:58:34;12.88;;;8.60;;
32521;SDS011;18963;51.504;5.316;2023-05-07T12:01:00;13.38;;;8.20;;
32521;SDS011;18963;51.504;5.316;2023-05-07T12:03:25;11.35;;;8.07;;
32521;SDS011;18963;51.504;5.316;2023-05-07T12:05:51;14.32;;;8.00;;
32521;SDS011;18963;51.504;5.316;2023-05-07T12:08:18;13.98;;;8.55;;
32521;SDS011;18963;51.504;5.316;2023-05-07T12:10:46;12.90;;;8.57;;
32521;SDS011;18963;51.504;5.316;2023-05-07T12:13:19;11.73;;;8.55;;
32521;SDS011;18963;51.504;5.316;2023-05-07T12:15:46;14.30;;;8.85;;
32521;SDS011;18963;51.504;5.316;2023-05-07T12:18:19;13.75;;;9.05;;
32521;SDS011;18963;51.504;5.316;2023-05-07T12:20:46;14.60;;;9.23;;
32521;SDS011;18963;51.504;5.316;2023-05-07T12:23:12;16.38;;;9.80;;
32521;SDS011;18963;51.504;5.316;2023-05-07T12:25:39;14.10;;;9.52;;
32521;SDS011;18963;51.504;5.316;2023-05-07T12:28:12;14.80;;;10.80;;
32521;SDS011;18963;51.504;5.316;2023-05-07T12:30:40;15.60;;;10.75;;
32521;SDS011;18963;51.504;5.316;2023-05-07T12:33:07;15.93;;;9.70;;
32521;SDS011;18963;51.504;5.316;2023-05-07T12:35:36;14.73;;;10.13;;
32521;SDS011;18963;51.504;5.316;2023-05-07T12:38:07;17.95;;;10.35;;
32521;SDS011;18963;51.504;5.316;2023-05-07T12:40:44;22.15;;;10.27;;
32521;SDS011;18963;51.504;5.316;2023-05-07T12:43:24;13.73;;;7.32;;
32521;SDS011;18963;51.504;5.316;2023-05-07T12:45:51;15.13;;;8.68;;
32521;SDS011;18963;51.504;5.316;2023-05-07T12:48:19;27.38;;;11.13;;
32521;SDS011;18963;51.504;5.316;2023-05-07T12:50:48;19.25;;;9.52;;
32521;SDS011;18963;51.504;5.316;2023-05-07T12:53:15;19.13;;;9.70;;
32521;SDS011;18963;51.504;5.316;2023-05-07T12:55:41;16.27;;;9.13;;
32521;SDS011;18963;51.504;5.316;2023-05-07T12:58:08;19.88;;;9.55;;
32521;SDS011;18963;51.504;5.316;2023-05-07T13:00:40;15.95;;;8.02;;
32521;SDS011;18963;51.504;5.316;2023-05-07T13:03:08;16.73;;;9.27;;
32521;SDS011;18963;51.504;5.316;2023-05-07T13:05:33;20.05;;;10.60;;
32521;SDS011;18963;51.504;5.316;2023-05-07T13:07:59;16.38;;;9.75;;
32521;SDS011;18963;51.504;5.316;2023-05-07T13:10:26;15.15;;;9.43;;
32521;SDS011;18963;51.504;5.316;2023-05-07T13:12:52;14.25;;;8.60;;
32521;SDS011;18963;51.504;5.316;2023-05-07T13:15:17;18.55;;;10.20;;
32521;SDS011;18963;51.504;5.316;2023-05-07T13:17:43;16.40;;;10.65;;
32521;SDS011;18963;51.504;5.316;2023-05-07T13:20:10;18.98;;;11.52;;
32521;SDS011;18963;51.504;5.316;2023-05-07T13:22:36;19.52;;;12.80;;
32521;SDS011;18963;51.504;5.316;2023-05-07T13:25:02;19.90;;;12.48;;
32521;SDS011;18963;51.504;5.316;2023-05-07T13:27:28;26.35;;;13.77;;
32521;SDS011;18963;51.504;5.316;2023-05-07T13:29:55;21.73;;;12.18;;
32521;SDS011;18963;51.504;5.316;2023-05-07T13:32:21;17.55;;;11.27;;
32521;SDS011;18963;51.504;5.316;2023-05-07T13:34:47;21.10;;;12.75;;
32521;SDS011;18963;51.504;5.316;2023-05-07T13:37:13;19.70;;;12.63;;
32521;SDS011;18963;51.504;5.316;2023-05-07T13:39:38;18.63;;;12.20;;
32521;SDS011;18963;51.504;5.316;2023-05-07T13:42:04;18.27;;;11.63;;
32521;SDS011;18963;51.504;5.316;2023-05-07T13:44:29;19.25;;;11.63;;
32521;SDS011;18963;51.504;5.316;2023-05-07T13:46:55;18.40;;;12.23;;
32521;SDS011;18963;51.504;5.316;2023-05-07T13:49:21;17.90;;;12.38;;
32521;SDS011;18963;51.504;5.316;2023-05-07T13:51:46;20.85;;;11.65;;
32521;SDS011;18963;51.504;5.316;2023-05-07T13:54:12;18.92;;;11.00;;
32521;SDS011;18963;51.504;5.316;2023-05-07T13:56:37;15.00;;;10.70;;
32521;SDS011;18963;51.504;5.316;2023-05-07T13:59:03;15.70;;;10.45;;
32521;SDS011;18963;51.504;5.316;2023-05-07T14:01:28;18.02;;;10.60;;
32521;SDS011;18963;51.504;5.316;2023-05-07T14:03:55;16.50;;;11.00;;
32521;SDS011;18963;51.504;5.316;2023-05-07T14:06:22;15.65;;;9.82;;
32521;SDS011;18963;51.504;5.316;2023-05-07T14:08:48;14.98;;;9.93;;
32521;SDS011;18963;51.504;5.316;2023-05-07T14:11:13;16.42;;;10.70;;
32521;SDS011;18963;51.504;5.316;2023-05-07T14:13:39;14.85;;;10.57;;
32521;SDS011;18963;51.504;5.316;2023-05-07T14:16:05;17.95;;;10.63;;
32521;SDS011;18963;51.504;5.316;2023-05-07T14:18:30;15.93;;;10.50;;
32521;SDS011;18963;51.504;5.316;2023-05-07T14:20:58;16.20;;;10.95;;
32521;SDS011;18963;51.504;5.316;2023-05-07T14:23:24;16.13;;;10.10;;
32521;SDS011;18963;51.504;5.316;2023-05-07T14:25:51;19.02;;;11.73;;
32521;SDS011;18963;51.504;5.316;2023-05-07T14:28:18;15.95;;;10.55;;
32521;SDS011;18963;51.504;5.316;2023-05-07T14:30:44;18.38;;;11.20;;
32521;SDS011;18963;51.504;5.316;2023-05-07T14:33:09;17.33;;;11.95;;
32521;SDS011;18963;51.504;5.316;2023-05-07T14:35:35;19.33;;;11.88;;
32521;SDS011;18963;51.504;5.316;2023-05-07T14:38:01;16.67;;;11.75;;
32521;SDS011;18963;51.504;5.316;2023-05-07T14:40:27;18.30;;;11.55;;